Terminal Aerodrome Forecast
Issued by NWS New Orleans/Baton Rouge, LA

Home | Current Version | Previous Version | Text Only | Print | Product List | Glossary On
Versions: 1 2 3 4 5 6 7 8 9 10 11 12 13 14 15 16 17
000
FTUS44 KLIX 242344
TAFNEW
TAF
KNEW 242344Z 2500/2524 00000KT P6SM SCT022
     FM250200 10002KT P6SM SCT025 BKN200
     FM250900 00000KT P6SM VCSH SCT025 BKN250
     FM251500 10010KT P6SM VCTS SCT035CB BKN050
      TEMPO 2517/2521 VRB15G25KT 1SM TSRA BR BKN030CB=

USA.gov is the U.S. government's official web portal to all federal, state and local government web resources and services.